Lungi, Sierra Leone

4:36 PM GMT on July 30, 2014 (GMT +0000)
Lungi (GFLL) Elev 89 ft | 8.62 °N, 13.20 °W | Change Station

Current weather conditions updated 36 minutes ago

Mostly Cloudy
Mostly Cloudy
82 °F
Feels Like 90 °F
N
10
Wind Variable Wind from SSW

Tomorrow is forecast to be nearly the same temperature as today. Showers and thunderstorms.

Today
High -- | Low -- °F
--% Chance of Precip.
Yesterday
High -- | Low -- °F
Precip. -- in
6:44 AM 7:14 PM
Waxing Crescent, 12% visible
Pressure 29.89 in
Visibility 6.2 miles
Clouds Mostly Cloudy 1300 ft
Heat Index 90 °F
Dew Point 75 °F
Humidity 79%
Rainfall 0.00 in
Snow Depth Not available.
UV 3 out of 12
Pollen Not available.
Air Quality Not available.
Flu Activity Not available.
METAR GFLL 301600Z 21009KT 9999 BKN013 28/24 Q1012 RMK-N/NE

More Conditions Fewer Conditions

Pressure 29.89 in
Visibility 6.2 miles
Clouds Mostly Cloudy 1300 ft
Heat Index 90 °F
Dew Point 75 °F
Humidity 79%
Rainfall 0.00 in
Snow Depth Not available.
UV 3 out of 12
Pollen Not available.
Air Quality Not available.
Flu Activity Not available.
METAR GFLL 301600Z 21009KT 9999 BKN013 28/24 Q1012 RMK-N/NE

More Conditions Fewer Conditions

10-Day Weather Forecast

Almanac

Astronomy

Jul. 30, 2014 Rise Set
Actual Time 6:44 AM GMT 7:14 PM GMT
Civil Twilight 6:21 AM GMT 7:36 PM GMT
Nautical Twilight 5:55 AM GMT 8:02 PM GMT
Astronomical Twilight 5:29 AM GMT 8:28 PM GMT
Moon 9:18 AM GMT 9:41 PM GMT
Length of Visible Light 13h 14m
Length of Day
12h 30m
Tomorrow will be 0m 20s shorter.
Waxing Crescent, 12% of the Moon is Illuminated
Today
Waxing Crescent
Aug 3
First Quarter
Aug 10
Full
Aug 17
Last Quarter
Aug 25
New

Today's Extremes

Country Highs Country Lows

Community

WunderPhotos

Upload Photos

1,739,133 photos uploaded!

WunderBlogs® & News

By Dr. Jeff Masters
Director of Meteorology, Weather Underground
By Kari Strenfel
Meteorologist, Weather Underground
By Christopher C. Burt
Weather Historian, Weather Underground
July 30, 2014
July 30, 2014
July 30, 2014

Nearby

Snow Depth

Not available.

Earthquake Activity

City Distance Mag. Time & Date
No recent earthquake activity has been reported nearby.
Minimum magnitude displayed is 2.5.

Coastal Water Temperatures

Place Temperature
No Stations Reporting

Nearby Weather Stations

There are no personal weather stations in this area.